Ricardo Yedlin

Olheiro-Chefe - Columbus Crew
3 Dez 2028
Domingo
Processo

Personalidade

Adaptabilidade (8) Ambição (9) Controvérsia (17) Lealdade (4) Pressão (4) Profissionalismo (8) Espírito Esportivo (10) Temperamento (11)

Perfil

Estilo de Treinamento Democrático
Licença Continental A
Determinação 9
Gestão de Pessoas 11
Motivação 13
Disciplina 8
Satisfação no Trabalho
100%
Fadiga
0%
Função Olheiro-Chefe
Salário 34.3K p/s
Contrato 14.03.2029

Desempenho

Comportamento Bom
Eficácia do Treinamento
45%
Desenvolvimento do Jogador
45%
Prevenção de Lesões
50%
Implementação Tática
50%

Eventos Recentes

Recomendou um alvo de transferência agora
Recomendou um alvo de transferência agora
Recomendou um alvo de transferência agora
Recomendou um alvo de transferência agora
Recomendou um alvo de transferência agora
Avaliou um jogador agora
Avaliou um jogador agora
Avaliou um jogador agora

Monitorando agora

315
Jogador Clube Status Habilidade Confiança Observado Última observação Último voto
Augusto Berrondo Tristán Suárez Ativo 108 / 102 40% 3 02.12.2028 -
Alan Velasco Fortaleza Ativo 133 / 127 40% 5 02.12.2028 -
Mauricio Márquez Caracas Ativo 111 / 99 40% 5 01.12.2028 -
Fortune Bassey Bunyodkor Ativo 100 / 97 40% 5 01.12.2028 -
Luciano Herrera Newell's Old Boys Ativo 131 / 128 40% 4 30.11.2028 -
Agustín Gallo Tristán Suárez Ativo 104 / 108 40% 2 30.11.2028 -
Gianluca Pugliese Güemes Ativo 120 / 101 40% 5 29.11.2028 -
Emiliano Gómez Boston River Ativo 132 / 119 40% 4 29.11.2028 -
Santiago Sala Güemes Ativo 119 / 114 40% 2 28.11.2028 -
Gonzalo Plata Nacional Ativo 142 / 147 40% 4 27.11.2028 -
Bernardo Lima Porto Ativo 117 / 124 40% 4 26.11.2028 -
Luis Vázquez Mamelodi Sundowns Ativo 126 / 139 40% 1 26.11.2028 -
Bongani Khune SuperSport United Ativo 139 / 140 40% 1 26.11.2028 -
Rafael Mota Sporting CP Ativo 124 / 127 40% 1 26.11.2028 -
Jack Thompson Derby County Ativo 100 / 101 40% 3 25.11.2028 -
Kai Crampton Rapid Wien Ativo 100 / 105 40% 1 25.11.2028 -
Agustín Rodríguez Juventud Ativo 124 / 120 40% 7 23.11.2028 -
Mateo Caballero Defensor Sporting Ativo 103 / 104 40% 1 23.11.2028 -
Victor Mbaoma Gor Mahia Ativo 90 / 83 40% 1 20.11.2028 -
Tiago Gordillo San Miguel Ativo 81 / 88 40% 5 19.11.2028 -
Anothando Menemene University of Pretoria Ativo 110 / 93 40% 2 19.11.2028 -
Bongokuhle Hlongwane LA Galaxy Ativo 136 / 141 40% 1 19.11.2028 -
Estanislao López Colón Ativo 101 / 100 40% 1 19.11.2028 -
Lisandro Cabrera Maipú Ativo 115 / 121 40% 2 16.11.2028 -
Gonzalo Tapia São Paulo Ativo 141 / 133 40% 1 16.11.2028 -
Enzo González Defensores Ativo 113 / 111 40% 4 15.11.2028 -
Maximiliano Gómez Nacional Ativo 128 / 118 40% 1 15.11.2028 -
Lanre Awesu West Ham United Ativo 85 / 95 40% 2 14.11.2028 -
Jake Donohue Leicester City Ativo 81 / 95 40% 1 14.11.2028 -
Favio Cabral Mitre Ativo 118 / 111 40% 1 12.11.2028 -
Federico Álvarez Dinamo Tbilisi Ativo 123 / 115 40% 1 12.11.2028 -
Esteban Obregón Montevideo City Torque Ativo 118 / 116 40% 6 11.11.2028 -
Felipe Varela Trujillanos Ativo 94 / 100 40% 3 11.11.2028 -
Moses Sesay Southampton Ativo 129 / 130 40% 1 11.11.2028 -
Rodrigo Pollero Deportivo Tachira Ativo 105 / 109 40% 2 09.11.2028 -
Juan Cruz de los Santos Nacional Ativo 126 / 137 40% 2 09.11.2028 -
Aytor Herrera Mineros de Guayana Ativo 97 / 93 40% 3 09.11.2028 -
Celías Ingenthron Platense Ativo 110 / 131 40% 1 09.11.2028 -
Jhon Murillo Jaguares Ativo 112 / 117 40% 4 07.11.2028 -
Santiago Solari Racing Club Ativo 126 / 117 40% 2 06.11.2028 -
Jerónimo Porto Lapegüe San Telmo Ativo 101 / 105 40% 1 06.11.2028 -
Giovanni Leoni Lincoln City Ativo 137 / 154 40% 2 05.11.2028 -
Francisco Machis Llaneros Ativo 93 / 98 40% 2 05.11.2028 -
Maclyn Biokpo Jenewari Rivers United Ativo 103 / 102 40% 9 03.11.2028 -
Trey Nyoni Rotherham United Ativo 139 / 157 40% 4 02.11.2028 -
Ezra Mayers West Ham United Ativo 119 / 148 40% 1 02.11.2028 -
Lyle Foster Rosenborg Ativo 144 / 133 40% 7 31.10.2028 -
Chukwuemeka Obioma Abia Warriors Ativo 89 / 86 40% 2 30.10.2028 -
Tobías Ramírez River Plate Ativo 136 / 126 40% 4 29.10.2028 -
Joachim Kayi Sanda Southampton Ativo 118 / 137 40% 1 29.10.2028 -
Blake Irow Tottenham Ativo 101 / 115 40% 1 29.10.2028 -
Casper Lindner Doncaster Rovers Ativo 108 / 92 40% 1 29.10.2028 -
Peyton Miller New England Revolution Ativo 123 / 123 40% 3 27.10.2028 -
Tyson Pearce St. Louis CITY SC Ativo 98 / 92 40% 2 27.10.2028 -
Matías Arezo Penarol Ativo 138 / 128 40% 2 25.10.2028 -
Alejo Cruz Juventud Ativo 122 / 121 40% 4 24.10.2028 -
Agustín Anello Philadelphia Union Ativo 133 / 123 40% 2 24.10.2028 -
Idan Toklomati Charlotte Football Club Ativo 115 / 118 40% 2 23.10.2028 -
Ezekiel Kwame Alladoh Philadelphia Union Ativo 111 / 119 40% 1 23.10.2028 -
Alexander Díaz Deportivo Riestra Ativo 124 / 113 40% 1 22.10.2028 -
Luis Otávio Orlando City Ativo 110 / 121 40% 2 21.10.2028 -
Lehlogonolo Mohlabine Mamelodi Sundowns Ativo 95 / 87 40% 1 20.10.2028 -
Agustín Albrini Independiente Rivadavia Ativo 98 / 98 40% 1 20.10.2028 -
Leonardo Campana New England Revolution Ativo 121 / 137 40% 2 18.10.2028 -
Daniel Barrea Godoy Cruz Ativo 125 / 130 40% 2 18.10.2028 -
Camilo Machado Madryn Ativo 113 / 112 40% 1 17.10.2028 -
Gideon Manaseh Ikorodu City Ativo 98 / 91 40% 3 16.10.2028 -
Harrison Armstrong Ipswich Town Ativo 154 / 130 40% 4 16.10.2028 -
Pep Biel Charlotte Football Club Ativo 141 / 119 40% 1 16.10.2028 -
Leandro Suhr Boston River Ativo 119 / 118 40% 1 14.10.2028 -
Facundo Krüger Temperley Ativo 116 / 109 40% 1 13.10.2028 -
Matt Bagot Fulham Ativo 100 / 89 40% 1 12.10.2028 -
Tobías Pantoja Central Norte Ativo 107 / 109 40% 1 12.10.2028 -
Ethan Gold Crewe Alexandra Ativo 104 / 101 40% 4 11.10.2028 -
Honest Ahanor Atalanta Ativo 152 / 137 40% 1 06.10.2028 -
Timothy Zechariah Rivers United Ativo 103 / 98 40% 2 04.10.2028 -
Sebastián Cocimano Nueva Chicago Ativo 113 / 106 40% 1 04.10.2028 -
Riquelme Thompson-Jones Accrington Stanley Ativo 108 / 113 40% 6 03.10.2028 -
Christos Mouzakitis Hull City Ativo 144 / 146 40% 2 02.10.2028 -
Samson Olasupo Remo Stars Ativo 84 / 107 40% 1 30.09.2028 -
Sagir Arce Saburtalo Ativo 101 / 115 40% 1 29.09.2028 -
Luciano Cosentino Wanderers Ativo 132 / 125 40% 3 28.09.2028 -
Nicolás Ferreira Wanderers Ativo 131 / 114 40% 1 27.09.2028 -
José Barreto Quilmes Ativo 120 / 116 40% 1 26.09.2028 -
Azizbek To'lqinbekov Bunyodkor Ativo 120 / 105 40% 1 22.09.2028 -
Sergio Castel Persik Ativo 128 / 95 40% 1 21.09.2028 -
Tyler Fletcher Rotherham United Ativo 111 / 114 40% 2 17.09.2028 -
Ignacio Yepez Cerrito Ativo 115 / 103 40% 1 08.09.2028 -
Matías Sosa Arsenal Ativo 102 / 119 40% 1 07.09.2028 -
Francisco Bonfiglio Boston River Ativo 111 / 110 40% 1 04.09.2028 -
Samuel Anakwe Remo Stars Ativo 90 / 102 40% 1 30.08.2028 -
Thomas Schlupp BA All Stars Ativo 103 / 106 40% 1 29.08.2028 -
Rhys Chadwick Blackpool Ativo 103 / 117 40% 1 29.08.2028 -
Victor Adeboyejo Cotonsport Garoua Ativo 125 / 99 40% 1 25.08.2028 -
Wandile Duba ASO Chlef Ativo 132 / 130 40% 1 24.08.2028 -
Louis Page Leicester City Ativo 120 / 132 40% 1 22.08.2028 -
Silas Nwankwo MC El Bayadh Ativo 112 / 89 40% 1 21.08.2028 -
Musa Barrow ES Setif Ativo 132 / 153 40% 1 19.08.2028 -
Federico Di Francesco Catanzaro Ativo 125 / 130 40% 1 18.08.2028 -
Seidu Basit Ashanti Gold Ativo 101 / 100 40% 1 18.08.2028 -
Sindre Walle Egeli Udinese Ativo 146 / 148 40% 2 17.08.2028 -
Alieu Njie Torino Ativo 153 / 143 40% 1 17.08.2028 -
Ifeagwu Ojukwu Asante Kotoko Ativo 102 / 104 40% 1 16.08.2028 -
Bence Szakos Aris Ativo 112 / 100 40% 1 16.08.2028 -
Manuel De Luca Cremonese Ativo 122 / 136 40% 1 13.08.2028 -
Thijs Kraaijeveld USM Alger Ativo 123 / 130 40% 1 13.08.2028 -
Samuele Mulattieri Sassuolo Ativo 123 / 137 40% 1 11.08.2028 -
Camillo Tavernelli Arezzo Ativo 116 / 119 40% 1 11.08.2028 -
Rocco Vata Watford Ativo 136 / 132 40% 3 08.08.2028 -
Stephen Humphrys Bradford City Ativo 108 / 108 40% 1 08.08.2028 -
Hwang Hee-Chan Wolverhampton Ativo 158 / 149 40% 2 07.08.2028 -
Ryan Graydon Salford City Ativo 105 / 104 40% 1 07.08.2028 -
Nicolò Moranduzzo Renate Negociando 112 / 105 40% 2 31.07.2028 -
Jack Wint Sibenik Negociando 87 / 121 40% 3 24.07.2028 -
Danny Ings Sheffield United Perdido 132 / 114 40% 1 14.07.2028 -
Brandon Thomas-Asante Blackpool Ativo 135 / 127 40% 1 14.07.2028 -
Augustus Kargbo Blackburn Rovers Ativo 107 / 130 40% 2 13.07.2028 -
Mamadou Doumbia Rotherham United Ativo 128 / 127 40% 1 13.07.2028 -
Sam Greenwood Bristol City Ativo 143 / 142 40% 1 12.07.2028 -
Tyreece Campbell Charlton Athletic Ativo 114 / 134 40% 1 11.07.2028 -
Andrey Ivlev Nizhniy Novgorod Ativo 119 / 125 40% 3 10.07.2028 -
Seth Ridgeon Fulham Ativo 91 / 124 40% 1 10.07.2028 -
Richard Koné Queens Park Rangers Ativo 126 / 136 40% 1 10.07.2028 -
Adam Idah Swansea City Ativo 140 / 130 40% 1 07.07.2028 -
Abubakar Adams Aduana Stars Ativo 73 / 95 40% 2 06.07.2028 -
Josh Nichols Oldham Athletic Ativo 120 / 134 40% 6 05.07.2028 -
Joel Ezra Enyimba Ativo 94 / 117 40% 4 04.06.2028 -
Daniel Banjaqui Benfica Ativo 136 / 141 40% 2 03.06.2028 -
Jan Bürger Northampton Town Ativo 134 / 117 40% 1 01.06.2028 -
Kamaldeen Atiemo Wa All Stars Ativo 119 / 114 40% 2 28.05.2028 -
Ayden Heaven Portsmouth Ativo 151 / 161 40% 3 22.05.2028 -
Eko Solomon Leixões Ativo 84 / 89 40% 2 21.05.2028 -
Jorthy Mokio ADO Den Haag Ativo 127 / 131 40% 2 17.05.2028 -
Martim Cunha Porto Ativo 107 / 108 40% 3 07.05.2028 -
Simone Suppa Virtus Verona Ativo 90 / 103 40% 1 05.05.2028 -
Kiani Inge Groningen Ativo 111 / 117 40% 1 10.04.2028 -
Thato Sibiya Orlando Pirates Ativo 115 / 132 40% 1 03.04.2028 -
André Franco Chicago Fire Ativo 115 / 118 51% 1 20.03.2028 -
Olivier Leroux Mouscron Ativo 105 / 113 40% 1 15.02.2028 -
Alexandru Stanciu Braga Ativo 138 / 138 66% 1 14.02.2028 Aprovar
Emil Ceïde Bodo/Glimt Ativo 123 / 124 66% 1 14.02.2028 Aprovar
Oleh Ocheretko FC Dallas Ativo 129 / 131 67% 1 14.02.2028 Aprovar
Arthur Sales Maritzburg United Ativo 120 / 113 40% 2 13.02.2028 -
Callum O'Hare Sheffield United Ativo 120 / 145 40% 1 13.02.2028 -
Ntokozo Dlamini Onze Createurs Ativo 105 / 104 40% 2 12.02.2028 -
Bokamoso Taukobong Inter Allies Ativo 94 / 82 40% 1 12.02.2028 -
Sam Proctor Salford City Ativo 117 / 138 40% 14 11.02.2028 -
Alastair Graham Nottingham Forest Ativo 77 / 94 40% 4 11.02.2028 -
Woody Williamson Accrington Stanley Ativo 97 / 94 40% 8 10.02.2028 -
Thiago Brentford Ativo 148 / 156 40% 2 10.02.2028 -
Ismaïla Sarr Crystal Palace Ativo 142 / 155 40% 1 08.02.2028 -
William Osula Wrexham Ativo 119 / 130 40% 1 08.02.2028 -
Siyabonga Hlatshwayo Bloemfontein Celtic Ativo 97 / 96 40% 1 08.02.2028 -
Toby Bell Chelsea Ativo 75 / 109 40% 1 08.02.2028 -
Dylan Moody Cheltenham Town Ativo 101 / 124 40% 8 07.02.2028 -
Favour Bala Plateau United Ativo 97 / 105 40% 7 04.02.2028 -
Seb Stacey Crawley Town Ativo 91 / 83 40% 4 04.02.2028 -
Dylan Thompson Tottenham Ativo 73 / 80 40% 2 03.02.2028 -
George Hardy Charlton Athletic Ativo 88 / 80 40% 3 03.02.2028 -
Muhammadyusuf Sobirov Bunyodkor Ativo 122 / 106 40% 12 02.02.2028 -
Owen Asemota Aston Villa Ativo 94 / 94 40% 4 02.02.2028 -
Lorenz Ferdinand Tondela Ativo 91 / 116 40% 4 01.02.2028 -
Bailey Hall Liverpool Ativo 85 / 82 40% 2 24.01.2028 -
Naphtali Mokoena Bloemfontein Celtic Ativo 98 / 117 40% 6 20.01.2028 -
Finley Grigg Manchester City Ativo 76 / 99 40% 2 20.01.2028 -
Lwandiso Radebe Ajax Cape Town Ativo 105 / 119 40% 5 14.01.2028 -
Carlos Nemocón Santa Fe Ativo 97 / 99 40% 6 11.01.2028 -
Tiziano Delias Sarmiento Ativo 83 / 97 40% 4 10.01.2028 -
Lucas Camejo River Plate Ativo 95 / 87 40% 1 07.01.2028 -
Charlie Warren Queens Park Rangers Ativo 78 / 78 40% 1 06.01.2028 -
Mohamed-Ali Cho Hull City Ativo 138 / 134 40% 1 03.01.2028 -
Dejan Joveljić Seattle Sounders Ativo 135 / 125 40% 1 02.01.2028 -
Alejandro Rincon Llaneros Ativo 97 / 95 40% 1 02.01.2028 -
Alexis Cuello San Lorenzo Ativo 119 / 125 40% 1 31.12.2027 -
Sam Kane Derby County Ativo 94 / 83 40% 2 22.12.2027 -
Nathaniel Nwosu Irtysh Ativo 122 / 120 40% 4 22.12.2027 -
Robert Cook Accrington Stanley Ativo 108 / 107 40% 13 18.12.2027 -
Lucas Thomas Luton Town Ativo 67 / 97 40% 2 15.12.2027 -
Sebastian Jensen Brighton Ativo 78 / 94 40% 2 12.12.2027 -
Oliver Lloyd Middlesbrough Ativo 68 / 91 40% 1 03.12.2027 -
Yegor Koshkin Pobeda Ativo 86 / 86 40% 1 29.11.2027 -
Farren Doran Tottenham Ativo 83 / 105 40% 1 29.11.2027 -
Harrison Chamberlain Colchester United Ativo 85 / 80 40% 1 25.11.2027 -
William O'Sullivan Crawley Town Ativo 100 / 82 40% 1 24.11.2027 -
Khumoitsile Rathokolo Burton Albion Ativo 83 / 83 40% 1 17.11.2027 -
Luke Campbell Bolton Wanderers Ativo 87 / 103 40% 4 16.11.2027 -
Onyeuche Ujunwa Ikorodu City Ativo 91 / 93 40% 1 12.11.2027 -
Luis Lines Norwich City Ativo 97 / 80 40% 1 09.11.2027 -
Archie Gray Southampton Ativo 133 / 152 40% 1 02.11.2027 -
Lewys Benjamin Wolverhampton Ativo 71 / 88 40% 1 24.10.2027 -
Jason Clarke Liverpool Ativo 108 / 100 40% 1 15.10.2027 -
Jack Austin Chelsea Ativo 106 / 100 40% 1 15.10.2027 -
Victor Hernandez Santa Fe Ativo 123 / 118 40% 1 13.10.2027 -
True Grant Oldham Athletic Ativo 90 / 112 40% 2 05.10.2027 -
Issa Yusuf Shooting Stars Ativo 105 / 85 40% 1 05.10.2027 -
Domnan Panse Plateau United Ativo 70 / 102 40% 1 03.10.2027 -
Rylee Mitchell Crotone Ativo 80 / 82 40% 1 23.09.2027 -
Benjamin Twum Medeama Ativo 88 / 95 40% 2 20.09.2027 -
Shea Connor Monopoli Ativo 86 / 104 40% 2 09.09.2027 -
Tyrese Campbell Sheffield United Ativo 123 / 134 67% 2 03.08.2027 Aprovar
Rodrigo Muniz Fulham Ativo 161 / 138 40% 1 03.08.2027 -
Anthony Cletus Bendel Insurance Ativo 110 / 85 40% 3 14.07.2027 -
Pedro de la Vega Columbus Crew Ativo 133 / 134 66% 1 08.07.2027 Aprovar
Dale Taylor Blackpool Ativo 113 / 131 40% 1 07.07.2027 -
Keehan Willows Lincoln City Ativo 102 / 81 40% 1 06.07.2027 -
Carey Bloedorn Swindon Town Ativo 82 / 91 40% 1 01.07.2027 -
Alexei Rojas Fedorushchenko Barrow AFC Ativo 99 / 127 40% 1 21.06.2027 -
Giovanni Stellato Guidonia Montecelio Ativo 79 / 89 40% 3 19.06.2027 -
Gonçalo Ribeiro Porto Ativo 82 / 89 40% 3 29.05.2027 -
Jakub Badžgoň MSK Zilina Ativo 110 / 123 40% 1 23.05.2027 -
Jack Rudoni Coventry City Ativo 149 / 147 40% 1 02.03.2027 -
Myles Roberts Cambridge United Ativo 86 / 89 40% 1 14.02.2027 -
Juanlu Bournemouth Ativo 139 / 160 40% 1 11.02.2027 -
Nana Nuhu WAFA Ativo 75 / 85 40% 1 10.02.2027 -
Bazoumana Touré Newcastle United Ativo 120 / 139 40% 1 10.02.2027 -
Dara O'Shea Ipswich Town Ativo 147 / 135 40% 1 09.02.2027 -
Alex Scott Bournemouth Ativo 162 / 139 40% 1 09.02.2027 -
Lewis Gibson Preston Ativo 109 / 123 40% 1 07.02.2027 -
Ousmane Diomande Nottingham Forest Ativo 146 / 156 40% 1 07.02.2027 -
Alessandro Buongiorno Cagliari Ativo 177 / 148 40% 3 06.02.2027 -
Lewis Ferguson Bologna Ativo 157 / 138 40% 1 06.02.2027 -
Álex Centelles Levski Ativo 118 / 137 40% 7 05.02.2027 -
Benjamin Jack Sliema Wanderers Ativo 61 / 71 40% 2 01.02.2027 -
Lindon Emërllahu Polissia Ativo 112 / 137 40% 1 01.02.2027 -
Danilo Veiga Lecce Ativo 146 / 130 40% 1 01.02.2027 -
Emmanuel Boateng Hapoel Tel Aviv Ativo 122 / 118 40% 1 01.02.2027 -
Ishmael Addo Heart of Lions Ativo 91 / 103 40% 2 28.01.2027 -
Hans Nicolussi Caviglia Parma Ativo 136 / 129 40% 1 28.01.2027 -
Enrico Delprato Parma Ativo 132 / 127 40% 1 27.01.2027 -
Lucas Da Cunha Como Ativo 153 / 157 40% 1 25.01.2027 -
Aldair Faustino Levski Ativo 138 / 101 40% 1 24.01.2027 -
Thierry Rendall Correia Venezia Ativo 151 / 122 40% 1 23.01.2027 -
Mehdi Dorval Catanzaro Ativo 112 / 119 40% 1 22.01.2027 -
Daniel Awuni Aduana Stars Ativo 88 / 98 40% 2 21.01.2027 -
Lander Astiazarán Real Sociedad Ativo 99 / 118 40% 1 21.01.2027 -
Yuki Ohashi Hapoel Tel Aviv Ativo 102 / 107 40% 1 21.01.2027 -
Kirill Glebov CSKA Moscow Ativo 123 / 114 40% 2 18.01.2027 -
Raoul Bellanova Atalanta Ativo 133 / 160 40% 1 17.01.2027 -
Billy Gilmour Napoli Ativo 156 / 137 40% 1 17.01.2027 -
Shea Lacey Crystal Palace Ativo 121 / 143 40% 1 14.01.2027 -
Percy Phiri Ajax Cape Town Ativo 100 / 112 40% 1 13.01.2027 -
Edwin Asamoah Berekum Chelsea Ativo 70 / 101 40% 1 11.01.2027 -
Simphiwe Selepe Orlando Pirates Ativo 119 / 114 40% 1 10.01.2027 -
Asanele Bonani Chippa United Ativo 67 / 98 40% 1 04.01.2027 -
Bruno Gomes Valletta Ativo 107 / 104 40% 1 04.01.2027 -
David Sangaré Ryazan Ativo 83 / 99 40% 1 01.01.2027 -
Vladyslav Kucheruk Victoriia Sumy Ativo 72 / 74 40% 1 01.01.2027 -
Andrii Kozhukhar Veres Ativo 117 / 96 40% 1 31.12.2026 -
Martin Trnovský Podbrezova Ativo 94 / 117 40% 2 30.12.2026 -
Arthur Beroe Ativo 120 / 102 40% 1 30.12.2026 -
Anton Zhylkin Karpaty Ativo 101 / 112 40% 3 29.12.2026 -
Mohamed Camara Asante Kotoko Ativo 119 / 91 40% 3 26.12.2026 -
Gedson Fernandes Spartak Moscow Ativo 143 / 148 40% 2 26.12.2026 -
Mohamed Ali Ben Romdhane Al Ahly Ativo 138 / 140 40% 1 25.12.2026 -
Matevž Vidovšek Olimpija Ljubljana Ativo 131 / 120 40% 5 22.12.2026 -
Ilja Tuseev Chelyabinsk Ativo 82 / 101 40% 3 22.12.2026 -
Manu Morlanes Mallorca Ativo 130 / 140 40% 2 19.12.2026 -
Ani Ozoemena Rivers United Ativo 105 / 95 40% 4 19.12.2026 -
Ifeanyi Emmanuel Niger Tornadoes Ativo 105 / 100 40% 2 19.12.2026 -
Nikita Krivtsov Krasnodar Ativo 144 / 121 40% 1 19.12.2026 -
Oliver Arblaster Sheffield United Ativo 116 / 140 40% 1 18.12.2026 -
Gladson Amoah Liberty Professionals Ativo 86 / 84 40% 1 17.12.2026 -
Alexandr Koryakin Krasnodar Ativo 114 / 115 40% 2 15.12.2026 -
Femi Seriki Sheffield United Ativo 148 / 120 40% 1 10.12.2026 -
Richard Ludha MFK Skalica Ativo 124 / 112 40% 2 07.12.2026 -
Oliver Petersen Odd Ativo 118 / 119 40% 4 01.12.2026 -
John Pulskamp Sporting Kansas City Ativo 101 / 108 40% 3 26.11.2026 -
Heorhii Yermakov Metalist Ativo 117 / 120 40% 1 23.11.2026 -
Islam Imamov SKA Khabarovsk Ativo 91 / 83 40% 1 23.11.2026 -
Felix Kyei Medeama Ativo 77 / 79 40% 2 21.11.2026 -
Luka Baš Koper Ativo 119 / 114 40% 2 18.11.2026 -
Itumeleng Grobler Free State Stars Ativo 79 / 112 40% 3 16.11.2026 -
Themba Dala Black Aces Ativo 109 / 99 40% 1 15.11.2026 -
Pontus Dahlberg Lillestrom Ativo 130 / 107 40% 2 14.11.2026 -
Tomás Aranda Boca Juniors Ativo 122 / 118 40% 1 12.11.2026 -
Oufa Shobeir MC Alger Ativo 122 / 117 40% 1 08.11.2026 -
Maksym Kovaliov Spartak 1918 Ativo 93 / 103 40% 1 08.11.2026 -
Michael Atata Ikorodu City Ativo 77 / 100 40% 3 07.11.2026 -
Ameh Godwin Nasarawa United Ativo 110 / 87 40% 3 07.11.2026 -
Ştefan Târnovanu CFR Cluj Ativo 132 / 133 40% 2 06.11.2026 -
Samuel Brolin Kalmar FF Ativo 90 / 109 40% 1 05.11.2026 -
Luka Gavran Toronto FC Ativo 98 / 113 40% 3 04.11.2026 -
Roman Dixon Walsall Ativo 119 / 106 40% 1 02.11.2026 -
Romelle Donovan Brentford Ativo 126 / 123 40% 1 02.11.2026 -
Francisco Meixedo Feirense Ativo 97 / 97 40% 1 01.11.2026 -
Mohammed Galadima Hapoel Kfar Saba Ativo 87 / 78 40% 1 01.11.2026 -
Brian Opondo Kakamega Homeboyz Ativo 68 / 102 40% 2 30.10.2026 -
János Uram Vasas Ativo 112 / 88 40% 1 28.10.2026 -
Monty Batlhabane Polokwane City Ativo 81 / 83 40% 2 27.10.2026 -
Humphrey Katasi AFC Leopards Ativo 73 / 99 40% 2 24.10.2026 -
Mattias Lamhauge Stromsgodset Ativo 121 / 88 40% 1 23.10.2026 -
Siyabonga Dladla Orlando Pirates Ativo 97 / 108 40% 2 22.10.2026 -
Ľubomír Belko Viking Ativo 143 / 127 40% 1 22.10.2026 -
CJ dos Santos San Diego Football Club Ativo 124 / 99 40% 3 11.10.2026 -
Harrison Owusu Wa All Stars Ativo 69 / 105 40% 1 10.10.2026 -
Ali Ishaku Abia Warriors Ativo 74 / 99 40% 1 09.10.2026 -
Diego Enríquez Sporting Cristal Ativo 117 / 136 40% 2 05.10.2026 -
Lukas Engel Real Salt Lake Ativo 110 / 127 40% 1 05.10.2026 -
Brian Bwire Polokwane City Ativo 76 / 103 40% 1 02.10.2026 -
Mustapha Lawal Shooting Stars Ativo 71 / 100 40% 2 27.09.2026 -
Nahuel González Alvarado Ativo 90 / 92 40% 1 27.09.2026 -
Yahaya Ibrahim Plateau United Ativo 73 / 110 40% 1 27.09.2026 -
Reece Braithwaite Bloemfontein Celtic Ativo 107 / 101 40% 2 25.09.2026 -
Nico Hansen Colorado Rapids Ativo 103 / 106 40% 1 25.09.2026 -
Clinton Jephta Niger Tornadoes Ativo 93 / 112 40% 1 18.09.2026 -
Matteo Cardinali Hibernians Ativo 74 / 97 40% 1 15.09.2026 -
Rui Modesto Vancouver Whitecaps Ativo 123 / 128 40% 1 15.09.2026 -
Jordan Lotomba Bloemfontein Celtic Ativo 115 / 133 40% 1 15.09.2026 -
Vincent Edafe Warri Wolves Ativo 74 / 74 40% 1 13.09.2026 -
Alhassan Yusuf New England Revolution Ativo 112 / 134 40% 1 12.09.2026 -
John Amah Plateau United Ativo 82 / 80 40% 1 10.09.2026 -
Japhet Sery Larsen Philadelphia Union Ativo 126 / 126 40% 1 10.09.2026 -
Filip Marschall Stevenage Ativo 125 / 126 40% 1 08.09.2026 -
Kayne Rizvanovich Minnesota United FC Ativo 96 / 106 40% 1 05.08.2026 -
George McCormick Middlesbrough Ativo 72 / 81 40% 1 02.08.2026 -